Time;durP1;ratioP1;P1;durP2;ratioP2;P2;SDS_P1;SDS_P2;PMS_P1;PMS_P2;Temp;Humidity;BMP_temperature;BMP_pressure;BME280_temperature;BME280_humidity;BME280_pressure;Samples;Min_cycle;Max_cycle;Signal;HPM_P1;HPM_P2
2021/07/22 00:00:53;;;;;;;7.47;6.88;;;22.10;61.70;;;;;;5059427;28;20184;-84
2021/07/22 00:03:19;;;;;;;7.85;7.10;;;22.10;61.50;;;;;;5058907;28;20239;-84
2021/07/22 00:05:44;;;;;;;8.07;7.28;;;22.20;61.00;;;;;;5059277;28;20241;-84
2021/07/22 00:08:13;;;;;;;9.25;8.32;;;22.00;61.20;;;;;;5058799;28;20185;-87
2021/07/22 00:10:39;;;;;;;9.02;8.13;;;21.80;61.80;;;;;;5041216;28;20212;-84
2021/07/22 00:13:05;;;;;;;8.85;7.95;;;21.60;62.50;;;;;;5058747;28;20191;-84
2021/07/22 00:15:32;;;;;;;7.90;7.18;;;21.50;63.00;;;;;;5059004;28;20184;-86
2021/07/22 00:17:58;;;;;;;8.38;7.68;;;21.50;63.40;;;;;;5058437;28;20263;-84
2021/07/22 00:20:24;;;;;;;9.27;8.32;;;21.70;62.80;;;;;;5058494;28;20219;-83
2021/07/22 00:22:49;;;;;;;10.27;8.52;;;21.80;62.30;;;;;;5058810;28;20226;-86
2021/07/22 00:25:15;;;;;;;9.05;7.88;;;21.70;62.90;;;;;;5058697;28;20179;-85
2021/07/22 00:27:41;;;;;;;10.43;8.63;;;21.80;62.60;;;;;;5058255;28;20270;-85
2021/07/22 00:30:07;;;;;;;8.70;7.93;;;21.60;62.30;;;;;;5058017;28;20641;-84
2021/07/22 00:32:35;;;;;;;8.88;7.97;;;21.60;62.90;;;;;;5058500;28;20172;-84
2021/07/22 00:35:00;;;;;;;8.00;7.30;;;21.50;62.80;;;;;;5058412;28;20176;-84
2021/07/22 00:37:26;;;;;;;7.95;7.25;;;21.40;63.60;;;;;;5058516;28;20215;-85
2021/07/22 00:39:52;;;;;;;8.40;7.70;;;21.50;63.40;;;;;;5058780;28;20180;-85
2021/07/22 00:42:17;;;;;;;8.23;7.43;;;21.50;63.20;;;;;;5058295;28;20272;-85
2021/07/22 00:44:43;;;;;;;8.38;7.55;;;21.40;63.30;;;;;;5058971;28;20186;-84
2021/07/22 00:47:09;;;;;;;8.43;7.00;;;21.20;63.90;;;;;;5059223;28;20223;-84
2021/07/22 00:49:34;;;;;;;8.73;7.93;;;20.90;64.90;;;;;;5058811;28;20645;-87
2021/07/22 00:52:00;;;;;;;9.13;8.32;;;20.90;65.10;;;;;;5058090;28;20185;-85
2021/07/22 00:54:26;;;;;;;9.23;8.40;;;20.80;65.60;;;;;;5058494;28;20178;-85
2021/07/22 00:56:51;;;;;;;9.68;8.77;;;20.60;66.10;;;;;;5058386;28;20217;-86
2021/07/22 00:59:17;;;;;;;9.98;8.93;;;20.60;66.20;;;;;;5057376;28;20243;-85
2021/07/22 01:01:43;;;;;;;9.68;8.80;;;20.40;66.70;;;;;;5058004;28;20183;-85
2021/07/22 01:04:09;;;;;;;9.65;8.65;;;20.30;67.10;;;;;;5058125;28;20264;-85
2021/07/22 01:06:34;;;;;;;9.90;8.55;;;20.30;67.30;;;;;;5058239;28;20235;-85
2021/07/22 01:09:00;;;;;;;9.20;8.35;;;20.20;67.50;;;;;;5057563;28;20188;-84
2021/07/22 01:11:25;;;;;;;9.48;7.93;;;19.90;68.40;;;;;;5026806;28;20193;-85
2021/07/22 01:13:51;;;;;;;8.88;7.88;;;19.80;68.80;;;;;;5062044;28;20176;-84
2021/07/22 01:16:17;;;;;;;9.40;8.35;;;19.80;69.20;;;;;;5061800;28;20213;-85
2021/07/22 01:18:43;;;;;;;10.45;8.02;;;19.90;69.30;;;;;;5061212;28;20181;-85
2021/07/22 01:21:09;;;;;;;9.13;8.27;;;19.80;69.30;;;;;;5061661;28;20187;-85
2021/07/22 01:23:35;;;;;;;8.70;7.90;;;19.70;69.50;;;;;;5061668;28;20203;-85
2021/07/22 01:26:01;;;;;;;9.95;7.80;;;19.90;69.60;;;;;;5061804;28;20262;-85
2021/07/22 01:28:27;;;;;;;9.43;8.25;;;20.00;69.00;;;;;;5061967;28;20660;-85
2021/07/22 01:30:53;;;;;;;8.68;7.78;;;20.30;67.90;;;;;;5061685;28;20652;-85
2021/07/22 01:33:18;;;;;;;8.35;7.60;;;20.50;67.30;;;;;;5061769;28;20184;-85
2021/07/22 01:35:44;;;;;;;8.63;7.72;;;20.60;66.40;;;;;;5061829;28;20185;-85
2021/07/22 01:38:10;;;;;;;8.43;7.72;;;20.80;65.80;;;;;;5061233;28;20178;-83
2021/07/22 01:40:36;;;;;;;9.60;8.80;;;20.80;65.50;;;;;;5060969;28;20786;-85
2021/07/22 01:43:05;;;;;;;9.82;8.00;;;20.70;65.60;;;;;;5061633;28;20833;-85
2021/07/22 01:45:31;;;;;;;8.77;7.97;;;20.80;65.70;;;;;;5061399;28;20177;-85
2021/07/22 01:47:57;;;;;;;8.45;7.53;;;20.90;65.10;;;;;;5060755;28;20564;-86
2021/07/22 01:50:22;;;;;;;8.63;7.80;;;21.00;64.90;;;;;;5061303;28;20203;-85
2021/07/22 01:52:48;;;;;;;8.75;8.00;;;21.00;64.70;;;;;;5060773;28;20188;-85
2021/07/22 01:55:14;;;;;;;9.38;8.57;;;21.10;64.20;;;;;;5061709;28;20182;-85
2021/07/22 01:57:39;;;;;;;9.38;8.43;;;21.10;64.00;;;;;;5026591;28;20237;-85
2021/07/22 02:00:06;;;;;;;7.57;6.97;;;21.20;63.80;;;;;;5061654;28;20192;-85
2021/07/22 02:02:32;;;;;;;9.10;8.30;;;21.20;63.70;;;;;;5060969;28;20203;-86
2021/07/22 02:05:01;;;;;;;9.88;9.00;;;21.20;63.40;;;;;;5061383;28;20180;-86
2021/07/22 02:07:27;;;;;;;9.02;8.30;;;21.20;62.90;;;;;;5061090;28;20200;-85
2021/07/22 02:09:53;;;;;;;9.70;8.55;;;21.20;63.50;;;;;;5060609;28;20659;-85
2021/07/22 02:12:19;;;;;;;9.25;8.50;;;21.20;63.10;;;;;;5042716;28;20188;-84
2021/07/22 02:14:47;;;;;;;9.43;8.48;;;21.20;63.50;;;;;;5061412;28;20186;-85
2021/07/22 02:17:13;;;;;;;9.55;8.10;;;21.30;62.70;;;;;;5061089;28;20192;-84
2021/07/22 02:19:38;;;;;;;9.70;8.93;;;21.30;62.90;;;;;;5042940;28;20186;-86
2021/07/22 02:22:04;;;;;;;8.88;8.18;;;21.00;63.00;;;;;;5041557;28;20686;-85
2021/07/22 02:24:30;;;;;;;9.10;8.20;;;20.90;64.40;;;;;;5061008;28;20671;-85
2021/07/22 02:26:56;;;;;;;10.00;8.55;;;20.90;64.00;;;;;;5061105;28;20206;-85
2021/07/22 02:29:22;;;;;;;8.85;8.15;;;21.00;63.90;;;;;;5060585;28;20228;-85
2021/07/22 02:31:48;;;;;;;8.45;7.65;;;20.90;63.70;;;;;;5060569;28;20249;-85
2021/07/22 02:34:13;;;;;;;9.15;8.25;;;20.80;64.20;;;;;;5060602;28;20191;-84
2021/07/22 02:36:39;;;;;;;9.15;8.45;;;20.70;65.00;;;;;;5060528;28;20710;-85
2021/07/22 02:39:05;;;;;;;9.93;9.18;;;20.80;64.80;;;;;;5060228;28;20181;-86
2021/07/22 02:41:32;;;;;;;8.95;8.23;;;20.60;64.60;;;;;;5060322;28;20259;-85
2021/07/22 02:43:58;;;;;;;8.93;8.23;;;20.50;65.30;;;;;;5060870;28;20273;-85
2021/07/22 02:46:24;;;;;;;8.80;8.10;;;20.40;65.80;;;;;;5060639;28;20319;-85
2021/07/22 02:48:49;;;;;;;8.77;8.07;;;20.40;66.10;;;;;;5059772;28;20206;-85
2021/07/22 02:51:15;;;;;;;8.88;8.15;;;20.40;65.40;;;;;;5059592;28;20557;-85
2021/07/22 02:53:41;;;;;;;8.77;8.07;;;20.40;65.70;;;;;;5042931;28;20268;-85
2021/07/22 02:56:07;;;;;;;10.25;8.52;;;20.30;66.40;;;;;;5059792;28;20215;-85
2021/07/22 02:58:32;;;;;;;8.85;8.15;;;20.40;65.90;;;;;;5053273;28;20707;-85
2021/07/22 03:00:58;;;;;;;8.85;8.13;;;20.50;65.60;;;;;;5039444;28;20186;-84
2021/07/22 03:03:24;;;;;;;9.18;8.27;;;20.40;65.80;;;;;;5040074;28;20201;-85
2021/07/22 03:05:50;;;;;;;9.20;8.40;;;20.20;66.70;;;;;;5039750;28;20180;-85
2021/07/22 03:08:16;;;;;;;8.50;7.80;;;20.20;67.50;;;;;;5026786;28;20168;-85
2021/07/22 03:10:41;;;;;;;9.20;8.10;;;20.20;66.80;;;;;;5059499;28;20239;-85
2021/07/22 03:13:07;;;;;;;9.07;8.32;;;20.20;66.80;;;;;;5059929;28;20185;-85
2021/07/22 03:15:33;;;;;;;8.77;8.05;;;20.30;66.10;;;;;;5060061;28;20185;-86
2021/07/22 03:17:59;;;;;;;8.30;7.70;;;20.30;66.50;;;;;;5059594;28;20203;-84
2021/07/22 03:20:25;;;;;;;9.43;8.52;;;20.20;67.10;;;;;;5059746;28;20239;-85
2021/07/22 03:22:51;;;;;;;9.10;8.27;;;20.10;67.00;;;;;;5041785;28;20213;-85
2021/07/22 03:25:16;;;;;;;9.10;8.23;;;20.20;66.90;;;;;;5041137;28;20191;-85
2021/07/22 03:27:42;;;;;;;8.40;7.70;;;20.30;66.50;;;;;;5059949;28;20200;-85
2021/07/22 03:30:09;;;;;;;9.27;8.57;;;20.30;66.70;;;;;;5059385;28;20192;-85
2021/07/22 03:32:38;;;;;;;8.68;7.95;;;20.40;65.90;;;;;;5059509;28;20249;-85
2021/07/22 03:35:04;;;;;;;9.13;8.32;;;20.40;65.70;;;;;;5058826;28;20207;-85
2021/07/22 03:37:31;;;;;;;8.88;7.90;;;20.50;65.50;;;;;;5042074;28;20212;-85
2021/07/22 03:39:57;;;;;;;8.85;8.05;;;20.40;65.50;;;;;;5058140;28;20212;-85
2021/07/22 03:42:25;;;;;;;8.68;7.80;;;20.20;65.80;;;;;;5061033;28;20200;-85
2021/07/22 03:44:53;;;;;;;8.90;8.20;;;20.30;66.30;;;;;;5066598;28;20222;-85
2021/07/22 03:47:19;;;;;;;8.52;7.75;;;20.20;66.70;;;;;;5066846;28;20201;-84
2021/07/22 03:49:45;;;;;;;8.88;8.07;;;20.10;66.70;;;;;;5061925;28;20665;-85
2021/07/22 03:52:12;;;;;;;8.38;7.57;;;20.20;67.00;;;;;;5059512;28;20185;-85
2021/07/22 03:54:39;;;;;;;9.73;8.68;;;20.20;66.90;;;;;;5059113;28;20184;-85
2021/07/22 03:57:05;;;;;;;9.20;8.30;;;20.20;66.90;;;;;;5058654;28;20207;-86
2021/07/22 03:59:30;;;;;;;10.00;9.02;;;20.00;67.20;;;;;;5058883;28;20311;-85
2021/07/22 04:01:56;;;;;;;9.23;8.43;;;20.00;67.60;;;;;;5058908;28;20245;-85
2021/07/22 04:04:22;;;;;;;9.07;8.27;;;19.90;68.20;;;;;;5059351;28;20181;-85
2021/07/22 04:06:47;;;;;;;9.00;8.15;;;19.90;68.00;;;;;;5058651;28;20710;-85
2021/07/22 04:09:13;;;;;;;14.77;8.30;;;19.80;68.40;;;;;;5058832;28;20185;-85
2021/07/22 04:11:40;;;;;;;9.32;8.45;;;19.90;67.90;;;;;;5058225;28;20181;-85
2021/07/22 04:14:06;;;;;;;9.20;8.30;;;19.80;68.10;;;;;;5059386;28;20184;-85
2021/07/22 04:16:35;;;;;;;9.70;8.80;;;19.70;68.60;;;;;;5059205;28;20207;-85
2021/07/22 04:19:01;;;;;;;8.23;7.63;;;19.80;68.80;;;;;;5058693;28;20176;-84
2021/07/22 04:21:26;;;;;;;9.30;8.43;;;19.80;68.60;;;;;;5058525;28;20568;-85
2021/07/22 04:23:52;;;;;;;9.05;8.23;;;19.90;68.10;;;;;;5059304;28;20219;-85
2021/07/22 04:26:18;;;;;;;9.23;8.43;;;19.80;68.40;;;;;;5042736;28;20272;-84
2021/07/22 04:28:44;;;;;;;9.13;8.23;;;19.80;69.00;;;;;;5058422;28;20846;-85
2021/07/22 04:31:17;;;;;;;9.27;8.43;;;19.70;68.90;;;;;;5058123;28;20587;-85
2021/07/22 04:33:43;;;;;;;9.98;8.27;;;19.80;68.90;;;;;;5041224;28;20195;-85
2021/07/22 04:36:09;;;;;;;9.32;8.50;;;19.90;68.50;;;;;;5058566;28;20215;-85
2021/07/22 04:38:36;;;;;;;9.32;8.43;;;19.80;68.30;;;;;;5040026;28;20211;-85
2021/07/22 04:41:05;;;;;;;11.32;8.40;;;19.90;68.00;;;;;;5050411;28;20192;-85
2021/07/22 04:43:31;;;;;;;9.20;8.27;;;19.90;67.90;;;;;;5046871;28;20197;-85
2021/07/22 04:46:01;;;;;;;9.32;8.43;;;20.00;67.80;;;;;;5061507;28;20261;-84
2021/07/22 04:48:27;;;;;;;9.50;8.68;;;19.80;68.40;;;;;;5063220;28;20187;-85
2021/07/22 04:50:53;;;;;;;8.73;8.02;;;19.60;69.90;;;;;;5062448;28;20187;-85
2021/07/22 04:53:18;;;;;;;9.10;8.30;;;19.70;69.50;;;;;;5062463;28;20245;-85
2021/07/22 04:55:44;;;;;;;9.07;8.18;;;19.70;69.00;;;;;;5062350;28;20263;-85
2021/07/22 04:58:09;;;;;;;8.57;7.88;;;19.70;69.30;;;;;;5062932;28;20191;-85
2021/07/22 05:00:35;;;;;;;9.05;8.15;;;19.70;69.00;;;;;;5062844;28;20229;-85
2021/07/22 05:03:01;;;;;;;9.32;8.30;;;19.50;69.60;;;;;;5063276;28;20208;-85
2021/07/22 05:05:28;;;;;;;8.80;7.93;;;19.30;70.70;;;;;;5045788;28;20184;-85
2021/07/22 05:07:54;;;;;;;9.20;8.32;;;19.20;71.30;;;;;;5061487;28;20221;-85
2021/07/22 05:10:20;;;;;;;9.65;8.50;;;19.30;71.30;;;;;;5061798;28;20172;-85
2021/07/22 05:12:46;;;;;;;9.45;8.55;;;19.20;71.50;;;;;;5042368;28;20208;-85
2021/07/22 05:15:12;;;;;;;11.73;8.85;;;19.10;72.20;;;;;;5060974;28;20185;-85
2021/07/22 05:17:38;;;;;;;9.32;8.48;;;19.00;72.50;;;;;;5059166;28;20215;-85
2021/07/22 05:20:05;;;;;;;10.05;9.02;;;19.10;72.00;;;;;;5058063;28;20182;-85
2021/07/22 05:22:31;;;;;;;10.40;9.15;;;19.20;71.90;;;;;;5057144;28;20693;-84
2021/07/22 05:24:57;;;;;;;9.00;8.20;;;19.30;70.90;;;;;;5058515;28;20187;-85
2021/07/22 05:27:25;;;;;;;10.05;9.05;;;19.30;70.80;;;;;;5057524;28;20213;-85
2021/07/22 05:29:51;;;;;;;9.68;8.77;;;19.20;71.10;;;;;;5057527;28;20226;-84
2021/07/22 05:32:16;;;;;;;8.77;7.97;;;19.30;71.00;;;;;;5057202;28;20650;-85
2021/07/22 05:34:42;;;;;;;10.25;9.07;;;19.30;71.30;;;;;;5057062;28;20195;-85
2021/07/22 05:37:10;;;;;;;9.32;8.48;;;19.30;71.10;;;;;;5057495;28;20214;-84
2021/07/22 05:39:36;;;;;;;12.68;8.57;;;19.30;71.30;;;;;;5056832;28;20181;-85
2021/07/22 05:42:03;;;;;;;8.77;7.97;;;19.10;71.70;;;;;;5056665;28;20193;-85
2021/07/22 05:44:29;;;;;;;10.37;8.83;;;19.10;72.20;;;;;;5039221;28;20192;-84
2021/07/22 05:46:55;;;;;;;9.53;8.47;;;19.10;71.80;;;;;;5057519;28;20202;-84
2021/07/22 05:49:20;;;;;;;10.73;8.63;;;19.20;71.50;;;;;;5059218;28;20269;-87
2021/07/22 05:51:46;;;;;;;9.63;8.63;;;19.30;71.00;;;;;;5042642;28;20187;-83
2021/07/22 05:54:12;;;;;;;10.00;9.00;;;19.20;71.10;;;;;;5051275;28;20220;-83
2021/07/22 05:56:37;;;;;;;9.05;8.25;;;19.30;71.20;;;;;;5058914;28;20207;-83
2021/07/22 05:59:03;;;;;;;9.67;8.77;;;19.30;71.10;;;;;;5057626;28;20648;-81
2021/07/22 06:01:29;;;;;;;12.53;8.93;;;19.30;70.40;;;;;;5058856;28;20189;-82
2021/07/22 06:03:54;;;;;;;14.68;9.52;;;19.30;70.90;;;;;;5059941;28;20204;-82
2021/07/22 06:06:20;;;;;;;9.40;8.50;;;19.40;70.40;;;;;;5059442;28;20285;-85
2021/07/22 06:08:46;;;;;;;9.35;8.45;;;19.50;69.80;;;;;;5057668;28;20180;-85
2021/07/22 06:11:14;;;;;;;9.98;8.32;;;19.60;69.40;;;;;;5056135;28;20214;-85
2021/07/22 06:13:41;;;;;;;12.27;8.38;;;19.70;68.50;;;;;;5038554;28;20192;-85
2021/07/22 06:16:11;;;;;;;8.88;7.80;;;19.70;67.80;;;;;;5056102;28;20823;-85
2021/07/22 06:18:38;;;;;;;9.15;8.35;;;19.90;67.20;;;;;;5056051;28;20214;-84
2021/07/22 06:21:04;;;;;;;9.32;8.20;;;19.90;66.20;;;;;;5055430;28;20194;-86
2021/07/22 06:23:30;;;;;;;9.50;8.70;;;20.00;66.20;;;;;;5055348;28;20200;-86
2021/07/22 06:26:00;;;;;;;9.15;8.35;;;20.00;66.20;;;;;;5055350;28;20200;-84
2021/07/22 06:28:26;;;;;;;8.65;7.85;;;20.20;66.20;;;;;;5034927;28;20169;-85
2021/07/22 06:30:53;;;;;;;9.25;8.38;;;20.00;65.40;;;;;;5046446;28;20464;-86
2021/07/22 06:33:19;;;;;;;10.45;8.50;;;20.20;65.10;;;;;;5055307;28;20187;-84
2021/07/22 06:35:44;;;;;;;9.95;8.10;;;20.30;64.90;;;;;;5053747;28;20193;-85
2021/07/22 06:38:10;;;;;;;8.63;7.80;;;20.30;65.40;;;;;;5045378;28;20198;-84
2021/07/22 06:40:36;;;;;;;8.70;7.85;;;20.30;65.80;;;;;;5046337;28;20192;-84
2021/07/22 06:43:02;;;;;;;9.85;8.55;;;20.40;66.30;;;;;;5057898;28;20218;-85
2021/07/22 06:45:28;;;;;;;8.60;7.80;;;20.30;66.50;;;;;;5065217;28;20180;-85
2021/07/22 06:47:53;;;;;;;9.80;8.90;;;20.10;67.10;;;;;;5033505;28;20211;-85
2021/07/22 06:50:19;;;;;;;11.80;8.68;;;20.10;67.80;;;;;;5059515;28;20282;-88
2021/07/22 06:52:45;;;;;;;9.77;8.85;;;20.00;67.80;;;;;;5056867;28;20194;-87
2021/07/22 06:55:11;;;;;;;9.48;8.40;;;19.80;67.80;;;;;;5055209;28;20298;-88
2021/07/22 06:57:37;;;;;;;9.15;8.32;;;19.90;68.20;;;;;;5052477;28;20212;-88
2021/07/22 07:00:06;;;;;;;9.05;8.23;;;19.90;67.30;;;;;;5034739;28;20189;-88
2021/07/22 07:02:32;;;;;;;9.07;8.00;;;19.90;67.30;;;;;;5045974;28;20217;-87
2021/07/22 07:04:58;;;;;;;9.45;8.60;;;20.10;67.10;;;;;;5051013;28;20707;-87
2021/07/22 07:07:24;;;;;;;9.20;8.30;;;20.30;66.30;;;;;;5042416;28;20196;-87
2021/07/22 07:09:49;;;;;;;9.00;8.20;;;20.40;65.00;;;;;;5042357;28;20225;-87
2021/07/22 07:12:15;;;;;;;14.73;9.32;;;20.60;64.60;;;;;;5042786;28;20185;-87
2021/07/22 07:14:41;;;;;;;8.82;8.02;;;20.60;64.60;;;;;;5052066;28;20181;-89
2021/07/22 07:17:07;;;;;;;9.93;8.93;;;20.80;64.30;;;;;;5054943;28;20223;-88
2021/07/22 07:19:33;;;;;;;8.77;8.02;;;20.90;63.80;;;;;;5034339;28;20196;-88
2021/07/22 07:21:58;;;;;;;9.70;8.77;;;21.00;63.20;;;;;;5040285;28;20181;-88
2021/07/22 07:24:24;;;;;;;9.95;8.82;;;21.10;62.70;;;;;;5060155;28;20181;-88
2021/07/22 07:26:50;;;;;;;12.48;8.23;;;21.20;63.30;;;;;;5054379;28;20196;-88
2021/07/22 07:29:16;;;;;;;9.95;8.95;;;21.60;62.40;;;;;;5061204;28;20194;-88
2021/07/22 07:31:41;;;;;;;8.77;8.02;;;21.60;62.40;;;;;;5068020;28;20177;-88
2021/07/22 07:34:07;;;;;;;10.48;9.43;;;21.60;61.80;;;;;;5060999;28;20189;-88
2021/07/22 07:36:33;;;;;;;11.50;9.50;;;21.70;61.20;;;;;;5052960;28;20202;-88
2021/07/22 07:38:59;;;;;;;13.70;9.43;;;21.70;61.00;;;;;;5058028;28;20191;-88
2021/07/22 07:41:25;;;;;;;9.75;8.85;;;21.80;61.90;;;;;;5058031;28;20186;-85
2021/07/22 07:43:51;;;;;;;9.95;9.05;;;21.90;60.90;;;;;;5056267;28;20706;-86
2021/07/22 07:46:16;;;;;;;10.02;9.13;;;21.90;60.70;;;;;;5056433;28;21085;-86
2021/07/22 07:48:42;;;;;;;9.27;8.43;;;22.00;60.00;;;;;;5057569;28;20180;-88
2021/07/22 07:51:10;;;;;;;10.45;9.35;;;22.20;60.70;;;;;;5052512;28;20686;-88
2021/07/22 07:53:36;;;;;;;9.48;8.55;;;22.40;59.60;;;;;;5046427;28;20181;-89
2021/07/22 07:56:02;;;;;;;10.50;9.13;;;22.30;59.60;;;;;;5050822;28;20227;-85
2021/07/22 07:58:27;;;;;;;12.05;9.25;;;22.20;60.00;;;;;;5059825;28;20183;-86
2021/07/22 08:00:53;;;;;;;9.35;8.43;;;22.00;61.50;;;;;;5058062;28;20191;-86
2021/07/22 08:03:20;;;;;;;10.10;9.10;;;22.10;61.20;;;;;;5060199;28;20213;-87
2021/07/22 08:05:48;;;;;;;10.88;9.48;;;22.10;60.30;;;;;;5042101;28;20168;-85
2021/07/22 08:08:14;;;;;;;10.15;9.23;;;22.20;60.10;;;;;;5065017;28;20188;-88
2021/07/22 08:10:43;;;;;;;9.90;8.88;;;22.40;59.90;;;;;;5062093;28;20180;-89
2021/07/22 08:13:09;;;;;;;13.02;9.93;;;22.60;59.20;;;;;;5059268;28;20172;-87
2021/07/22 08:15:42;;;;;;;10.07;8.80;;;22.70;59.40;;;;;;5059502;28;20222;-86
2021/07/22 08:18:08;;;;;;;11.75;8.65;;;22.80;58.70;;;;;;5040027;28;20669;-86
2021/07/22 08:20:34;;;;;;;9.60;8.70;;;23.00;58.50;;;;;;5039981;28;20211;-87
2021/07/22 08:23:00;;;;;;;8.70;8.00;;;23.00;58.30;;;;;;5005392;28;20220;-88
2021/07/22 08:25:25;;;;;;;10.80;9.30;;;23.00;59.10;;;;;;5038647;28;20208;-88
2021/07/22 08:27:51;;;;;;;12.02;8.73;;;23.10;59.40;;;;;;5039054;28;20223;-88
2021/07/22 08:30:17;;;;;;;9.93;8.93;;;23.20;58.20;;;;;;5017214;28;20275;-85
2021/07/22 08:32:43;;;;;;;9.98;8.98;;;23.40;57.90;;;;;;5034820;28;20180;-88
2021/07/22 08:35:09;;;;;;;10.20;8.98;;;23.30;58.20;;;;;;5033184;28;20215;-88
2021/07/22 08:37:38;;;;;;;9.85;8.60;;;23.30;58.50;;;;;;5041569;28;20655;-88
2021/07/22 08:40:04;;;;;;;9.63;8.63;;;23.50;58.40;;;;;;5033306;28;20585;-85
2021/07/22 08:42:39;;;;;;;10.85;9.10;;;23.70;57.10;;;;;;5033039;28;20196;-86
2021/07/22 08:45:05;;;;;;;9.45;8.52;;;23.70;57.30;;;;;;5032993;28;20172;-88
2021/07/22 08:47:32;;;;;;;10.05;8.98;;;23.80;56.50;;;;;;5033682;28;20205;-85
2021/07/22 08:49:57;;;;;;;10.13;9.10;;;23.70;56.60;;;;;;5050211;28;20188;-88
2021/07/22 08:52:23;;;;;;;11.00;9.07;;;23.70;55.80;;;;;;5051155;28;20183;-86
2021/07/22 08:54:48;;;;;;;9.95;9.05;;;23.70;56.00;;;;;;5053248;28;20192;-87
2021/07/22 08:57:17;;;;;;;9.68;8.88;;;23.80;56.60;;;;;;5034699;28;20353;-86
2021/07/22 08:59:43;;;;;;;12.50;9.45;;;24.00;56.70;;;;;;5052670;28;20275;-86
2021/07/22 09:02:16;;;;;;;9.85;8.73;;;24.20;55.60;;;;;;5033270;28;20281;-87
2021/07/22 09:04:57;;;;;;;9.73;8.82;;;24.30;56.10;;;;;;5052391;28;20157;-86
2021/07/22 09:07:23;;;;;;;10.73;9.63;;;24.40;55.60;;;;;;5051944;28;20203;-86
2021/07/22 09:10:04;;;;;;;10.10;9.10;;;24.60;55.00;;;;;;5051913;28;20640;-87
2021/07/22 09:12:43;;;;;;;9.68;8.73;;;24.90;54.40;;;;;;5043308;28;20185;-85
2021/07/22 09:15:23;;;;;;;9.60;8.65;;;25.10;53.90;;;;;;5050608;28;20184;-86
2021/07/22 09:17:50;;;;;;;10.23;8.90;;;25.00;53.40;;;;;;5041110;28;20207;-87
2021/07/22 09:20:35;;;;;;;9.98;9.07;;;25.20;53.10;;;;;;5020920;28;20195;-86
2021/07/22 09:23:05;;;;;;;9.90;8.90;;;25.30;53.00;;;;;;5045861;28;20608;-85
2021/07/22 09:25:42;;;;;;;9.95;8.88;;;25.40;53.40;;;;;;5034169;28;20176;-85
2021/07/22 09:28:13;;;;;;;9.75;8.90;;;25.50;52.80;;;;;;5032257;28;20251;-86
2021/07/22 09:30:38;;;;;;;9.20;8.38;;;25.50;51.50;;;;;;5034385;28;20204;-87
2021/07/22 09:33:05;;;;;;;9.73;8.85;;;25.70;51.90;;;;;;5030969;28;20192;-86
2021/07/22 09:35:35;;;;;;;9.48;8.70;;;25.90;50.90;;;;;;5039359;28;20191;-86
2021/07/22 09:38:10;;;;;;;11.27;9.52;;;26.10;51.10;;;;;;5026794;28;20180;-90
2021/07/22 09:40:36;;;;;;;10.05;9.15;;;26.10;50.10;;;;;;5051692;28;20175;-89
2021/07/22 09:43:03;;;;;;;10.82;8.82;;;25.90;50.20;;;;;;5053431;28;20244;-88
2021/07/22 09:45:30;;;;;;;9.88;8.43;;;26.10;49.70;;;;;;5053323;28;20208;-89
2021/07/22 09:48:09;;;;;;;11.35;8.95;;;26.10;48.30;;;;;;5053570;28;20227;-89
2021/07/22 09:50:40;;;;;;;9.32;8.40;;;26.10;48.80;;;;;;5032889;28;20175;-88
2021/07/22 09:53:07;;;;;;;9.90;9.00;;;26.00;48.80;;;;;;5042035;28;20185;-90
2021/07/22 09:55:34;;;;;;;9.40;8.60;;;25.90;47.90;;;;;;5017667;28;20188;-88
2021/07/22 09:58:05;;;;;;;9.50;8.60;;;26.10;48.40;;;;;;5040488;28;20216;-89
2021/07/22 10:00:32;;;;;;;10.23;8.43;;;26.10;47.50;;;;;;5027384;28;20180;-90
2021/07/22 10:03:03;;;;;;;10.95;9.10;;;26.40;46.80;;;;;;5032785;28;20220;-92
2021/07/22 10:05:57;;;;;;;9.75;8.90;;;26.60;46.90;;;;;;5054356;28;20948;-91
2021/07/22 10:08:25;;;;;;;9.50;8.52;;;26.80;46.90;;;;;;5052411;28;20184;-87
2021/07/22 10:10:52;;;;;;;9.38;8.57;;;26.80;46.70;;;;;;5051152;28;20291;-86
2021/07/22 10:13:25;;;;;;;9.55;8.63;;;27.00;46.60;;;;;;5019103;28;20268;-86
2021/07/22 10:15:51;;;;;;;9.30;8.57;;;27.30;46.90;;;;;;5037822;28;20185;-86
2021/07/22 10:18:23;;;;;;;9.68;8.95;;;27.60;48.60;;;;;;5034240;28;20188;-87
2021/07/22 10:20:52;;;;;;;9.38;8.55;;;27.40;47.50;;;;;;5056425;28;20711;-86
2021/07/22 10:23:18;;;;;;;8.90;8.00;;;27.60;48.30;;;;;;5040957;28;20207;-87
2021/07/22 10:25:47;;;;;;;10.23;9.27;;;27.80;43.50;;;;;;5039694;28;20196;-87
2021/07/22 10:28:14;;;;;;;9.65;8.48;;;27.80;44.80;;;;;;5038764;28;20207;-87
2021/07/22 10:30:40;;;;;;;12.95;8.40;;;27.90;46.90;;;;;;5029022;28;20203;-87
2021/07/22 10:33:06;;;;;;;9.00;8.05;;;28.20;44.30;;;;;;5036990;28;20203;-88
2021/07/22 10:35:32;;;;;;;11.15;8.70;;;28.30;44.10;;;;;;5037768;28;20669;-88
2021/07/22 10:38:21;;;;;;;8.93;8.23;;;28.50;45.00;;;;;;5049616;28;20324;-88
2021/07/22 10:40:53;;;;;;;8.57;7.93;;;28.50;43.10;;;;;;5030105;28;20196;-87
2021/07/22 10:43:42;;;;;;;8.95;8.05;;;28.30;43.50;;;;;;5039255;28;20188;-88
2021/07/22 10:46:13;;;;;;;10.38;8.93;;;28.10;43.60;;;;;;5047215;28;20208;-88
2021/07/22 10:48:40;;;;;;;8.85;8.13;;;28.30;43.70;;;;;;5051498;28;20237;-88
2021/07/22 10:51:17;;;;;;;11.10;8.52;;;28.20;43.80;;;;;;5046321;28;20822;-87
2021/07/22 10:53:45;;;;;;;8.90;8.20;;;28.30;43.30;;;;;;5048774;28;20176;-86
2021/07/22 10:56:23;;;;;;;8.10;7.30;;;28.50;42.50;;;;;;5046661;28;20730;-88
2021/07/22 10:58:49;;;;;;;9.32;8.38;;;28.70;42.00;;;;;;5042646;28;20710;-87
2021/07/22 11:01:41;;;;;;;10.00;8.57;;;28.70;41.30;;;;;;5049499;28;20180;-88
2021/07/22 11:04:07;;;;;;;8.95;8.00;;;28.70;42.00;;;;;;5049105;28;20211;-89
2021/07/22 11:07:16;;;;;;;8.98;8.10;;;29.00;40.90;;;;;;5043933;28;20224;-89
2021/07/22 11:09:50;;;;;;;8.63;7.93;;;29.00;40.70;;;;;;4976420;28;20246;-90
2021/07/22 11:12:42;;;;;;;8.77;7.90;;;28.80;39.60;;;;;;4994997;28;20183;-86
2021/07/22 11:15:35;;;;;;;9.20;8.50;;;29.10;39.50;;;;;;5040348;28;20196;-87
2021/07/22 11:18:21;;;;;;;8.48;7.03;;;28.90;39.10;;;;;;5057340;28;20195;-86
2021/07/22 11:20:47;;;;;;;9.32;8.13;;;28.90;39.40;;;;;;5057047;28;20184;-85
2021/07/22 11:23:14;;;;;;;8.73;7.93;;;29.20;39.40;;;;;;5043101;28;20208;-87
2021/07/22 11:25:45;;;;;;;8.57;7.60;;;29.30;38.60;;;;;;5037689;28;20188;-87
2021/07/22 11:28:12;;;;;;;8.13;7.35;;;29.50;37.10;;;;;;5047055;28;20703;-87
2021/07/22 11:30:37;;;;;;;10.38;8.00;;;29.70;36.10;;;;;;5030632;28;20220;-87
2021/07/22 11:33:36;;;;;;;7.30;6.70;;;30.10;36.80;;;;;;5028548;28;20193;-86
2021/07/22 11:36:07;;;;;;;7.50;6.93;;;29.90;35.70;;;;;;5047829;28;20719;-86
2021/07/22 11:38:34;;;;;;;8.85;8.05;;;30.10;36.90;;;;;;5044217;28;20204;-87
2021/07/22 11:41:00;;;;;;;8.30;7.53;;;29.90;36.30;;;;;;5015695;28;20573;-87
2021/07/22 11:43:37;;;;;;;8.65;7.85;;;29.90;36.50;;;;;;5045779;28;20240;-86
2021/07/22 11:46:08;;;;;;;11.40;7.90;;;30.30;35.60;;;;;;5044723;28;20201;-87
2021/07/22 11:48:34;;;;;;;7.22;6.63;;;30.30;36.90;;;;;;5044877;28;20235;-88
2021/07/22 11:51:08;;;;;;;8.38;6.85;;;30.80;35.40;;;;;;5045007;28;20188;-85
2021/07/22 11:53:34;;;;;;;9.35;8.02;;;30.90;35.10;;;;;;5047745;28;20327;-88
2021/07/22 11:56:19;;;;;;;8.20;7.50;;;31.00;35.80;;;;;;5047272;28;20243;-87
2021/07/22 11:58:49;;;;;;;8.70;8.00;;;30.80;34.30;;;;;;5042454;28;20193;-89
2021/07/22 12:01:16;;;;;;;9.10;8.25;;;30.90;35.50;;;;;;5041502;28;20238;-87
2021/07/22 12:03:46;;;;;;;8.52;7.82;;;31.20;36.40;;;;;;5040275;28;20689;-87
2021/07/22 12:06:12;;;;;;;9.05;8.18;;;31.30;35.50;;;;;;5044837;28;20196;-87
2021/07/22 12:08:38;;;;;;;10.40;8.02;;;31.50;35.70;;;;;;5043440;28;20192;-86
2021/07/22 12:11:05;;;;;;;8.93;7.80;;;31.50;34.20;;;;;;5040531;28;20207;-88
2021/07/22 12:13:50;;;;;;;8.65;7.88;;;31.70;34.40;;;;;;5027381;28;20188;-87
2021/07/22 12:16:20;;;;;;;10.43;8.05;;;31.80;34.80;;;;;;5024517;28;20200;-91
2021/07/22 12:18:53;;;;;;;8.85;7.60;;;31.50;34.30;;;;;;5028197;28;20192;-90
2021/07/22 12:21:19;;;;;;;8.77;7.97;;;31.50;34.70;;;;;;5030258;28;20181;-91
2021/07/22 12:23:45;;;;;;;8.52;7.72;;;31.70;34.60;;;;;;5023840;28;20243;-91
2021/07/22 12:26:15;;;;;;;8.73;8.02;;;31.40;34.70;;;;;;5021944;28;20240;-91
2021/07/22 12:28:41;;;;;;;8.35;7.70;;;31.30;34.10;;;;;;5040278;28;20663;-91
2021/07/22 12:31:37;;;;;;;8.48;7.65;;;31.40;33.80;;;;;;5043655;28;20223;-92
2021/07/22 12:34:04;;;;;;;8.57;7.63;;;31.60;34.20;;;;;;5048472;28;20275;-92
2021/07/22 12:36:30;;;;;;;8.13;7.35;;;31.80;33.00;;;;;;5047746;28;20204;-91
2021/07/22 12:39:17;;;;;;;9.07;8.27;;;32.10;33.30;;;;;;5020220;28;20978;-91
2021/07/22 12:41:44;;;;;;;8.38;7.72;;;32.20;32.40;;;;;;5046899;28;20196;-92
2021/07/22 12:44:30;;;;;;;8.98;8.15;;;32.40;32.00;;;;;;5028671;28;20212;-89
2021/07/22 12:46:56;;;;;;;9.48;8.50;;;32.60;32.70;;;;;;5027169;28;20219;-91
2021/07/22 12:49:43;;;;;;;8.88;8.18;;;32.70;32.10;;;;;;5047002;28;20180;-90